createdAt,value
2018-09-28T00:02:04.610Z,63.71
2018-09-28T00:07:07.711Z,64.42
2018-09-28T00:12:10.804Z,64.49
2018-09-28T00:17:13.869Z,65.69
2018-09-28T00:22:17.001Z,65.00
2018-09-28T00:27:20.151Z,64.87
2018-09-28T00:32:23.295Z,65.12
2018-09-28T00:37:26.468Z,66.48
2018-09-28T00:42:29.644Z,67.03
2018-09-28T00:47:32.968Z,66.62
2018-09-28T00:52:36.112Z,65.98
2018-09-28T00:57:39.267Z,66.31
2018-09-28T01:02:42.412Z,66.24
2018-09-28T01:07:45.596Z,66.06
2018-09-28T01:12:48.773Z,66.39
2018-09-28T01:17:51.939Z,65.92
2018-09-28T01:22:54.997Z,64.91
2018-09-28T01:27:58.248Z,63.95
2018-09-28T01:33:01.343Z,64.38
2018-09-28T01:38:04.535Z,63.32
2018-09-28T01:43:07.719Z,63.07
2018-09-28T01:48:10.836Z,62.00
2018-09-28T01:53:13.918Z,61.65
2018-09-28T01:58:16.998Z,61.35
2018-09-28T02:03:20.067Z,61.35
2018-09-28T02:08:23.131Z,61.65
2018-09-28T02:13:27.110Z,61.49
2018-09-28T02:18:30.250Z,65.48
2018-09-28T02:23:33.327Z,68.13
2018-09-28T02:28:36.659Z,69.16
2018-09-28T02:33:39.732Z,70.04
2018-09-28T02:38:42.792Z,69.79
2018-09-28T02:43:47.251Z,70.21
2018-09-28T02:48:50.399Z,71.18
2018-09-28T02:53:53.444Z,71.34
2018-09-28T02:58:56.527Z,71.97
2018-09-28T03:03:59.639Z,71.91
2018-09-28T03:09:03.119Z,71.57
2018-09-28T03:14:06.676Z,71.86
2018-09-28T03:19:09.874Z,72.12
2018-09-28T03:24:12.972Z,71.88
2018-09-28T03:29:16.040Z,72.84
2018-09-28T03:34:19.120Z,73.11
2018-09-28T03:39:22.292Z,73.70
2018-09-28T03:44:25.392Z,73.38
2018-09-28T03:49:28.475Z,73.40
2018-09-28T03:54:31.721Z,73.42
2018-09-28T03:59:34.781Z,74.75
2018-09-28T04:04:37.854Z,74.75
2018-09-28T04:09:41.007Z,75.75
2018-09-28T04:14:44.135Z,75.75
2018-09-28T04:19:47.309Z,76.32
2018-09-28T04:24:50.388Z,76.38
2018-09-28T04:29:53.524Z,76.23
2018-09-28T04:34:56.751Z,76.54
2018-09-28T04:39:59.804Z,76.77
2018-09-28T04:45:03.002Z,78.04
2018-09-28T04:50:06.111Z,79.27
2018-09-28T04:55:09.229Z,81.04
2018-09-28T05:00:12.384Z,81.48
2018-09-28T05:05:15.442Z,81.32
2018-09-28T05:10:18.596Z,80.57
2018-09-28T05:15:21.727Z,79.90
2018-09-28T05:20:24.928Z,79.85
2018-09-28T05:25:28.231Z,79.43
2018-09-28T05:30:31.404Z,78.87
2018-09-28T05:35:34.524Z,78.47
2018-09-28T05:40:37.859Z,78.02
2018-09-28T05:45:40.961Z,76.80
2018-09-28T05:50:44.021Z,76.04
2018-09-28T05:55:47.110Z,75.23
2018-09-28T06:00:55.656Z,74.54
2018-09-28T06:06:03.673Z,74.98
2018-09-28T06:11:06.852Z,73.79
2018-09-28T06:16:09.989Z,73.60
2018-09-28T06:21:22.646Z,73.14
2018-09-28T06:32:10.779Z,73.09
2018-09-28T06:37:13.875Z,73.00
2018-09-28T06:42:17.025Z,72.78
2018-09-28T06:47:20.099Z,72.27
2018-09-28T06:52:23.200Z,72.21
2018-09-28T06:57:26.253Z,72.54
2018-09-28T07:02:29.348Z,71.94
2018-09-28T07:07:32.432Z,71.69
2018-09-28T07:12:35.524Z,71.17
2018-09-28T07:17:38.646Z,70.82
2018-09-28T07:22:41.761Z,70.53
2018-09-28T07:27:44.876Z,70.55
2018-09-28T07:32:47.979Z,67.03
2018-09-28T07:37:51.043Z,66.08
2018-09-28T07:42:54.103Z,64.77
2018-09-28T07:47:57.231Z,63.13
2018-09-28T07:53:00.266Z,62.39
2018-09-28T07:58:03.388Z,61.49
2018-09-28T08:03:06.524Z,61.34
2018-09-28T08:08:09.567Z,60.35
2018-09-28T08:13:12.657Z,59.90
2018-09-28T08:18:15.752Z,58.97
2018-09-28T08:23:18.905Z,58.39
2018-09-28T08:28:21.991Z,57.65
2018-09-28T08:33:25.096Z,56.92
2018-09-28T08:38:28.185Z,56.70
2018-09-28T08:43:31.323Z,57.14
2018-09-28T08:48:34.492Z,56.52
2018-09-28T08:53:37.563Z,55.71
2018-09-28T08:58:40.714Z,54.78
2018-09-28T09:03:43.855Z,54.74
2018-09-28T09:08:47.004Z,54.79
2018-09-28T09:13:50.072Z,54.09
2018-09-28T09:18:53.259Z,54.69
2018-09-28T09:23:56.470Z,54.38
2018-09-28T09:28:59.548Z,54.62
2018-09-28T09:34:02.625Z,53.75
2018-09-28T09:39:08.046Z,54.55
2018-09-28T09:44:11.136Z,53.02
2018-09-28T09:49:14.255Z,50.57
2018-09-28T09:54:17.333Z,47.89
2018-09-28T09:59:20.421Z,48.32
2018-09-28T10:04:23.656Z,47.83
2018-09-28T10:09:27.371Z,49.58
2018-09-28T10:14:33.792Z,49.60
2018-09-28T10:19:37.042Z,48.53
2018-09-28T10:24:40.095Z,48.40
2018-09-28T10:29:43.166Z,48.03
2018-09-28T10:34:46.338Z,48.00
2018-09-28T10:39:49.505Z,47.48
2018-09-28T10:44:52.543Z,46.55
2018-09-28T10:49:55.603Z,46.79
2018-09-28T10:54:58.679Z,46.77
2018-09-28T11:00:01.889Z,45.90
2018-09-28T11:05:05.132Z,45.85
2018-09-28T11:10:08.397Z,44.95
2018-09-28T11:15:11.513Z,44.65
2018-09-28T11:20:14.590Z,44.73
2018-09-28T11:25:17.679Z,45.16
2018-09-28T11:30:20.739Z,45.10
2018-09-28T11:35:23.808Z,44.31
2018-09-28T11:40:26.944Z,45.01
2018-09-28T11:45:30.178Z,43.84
2018-09-28T11:50:34.059Z,43.55
2018-09-28T11:55:37.656Z,44.42
2018-09-28T12:00:40.933Z,43.79
2018-09-28T12:05:44.772Z,42.72
2018-09-28T12:10:47.927Z,42.76
2018-09-28T12:15:51.200Z,43.61
2018-09-28T12:20:54.163Z,43.51
2018-09-28T12:25:57.316Z,44.16
2018-09-28T12:31:00.479Z,42.21
2018-09-28T12:36:03.626Z,41.46
2018-09-28T12:41:06.853Z,42.57
2018-09-28T12:46:10.095Z,43.67
2018-09-28T12:51:13.496Z,45.14
2018-09-28T12:56:16.632Z,45.20
2018-09-28T13:01:19.904Z,43.26
2018-09-28T13:06:23.213Z,42.42
2018-09-28T13:11:26.354Z,42.62
2018-09-28T13:16:29.474Z,42.97
2018-09-28T13:21:32.607Z,43.56
2018-09-28T13:26:35.743Z,43.92
2018-09-28T13:31:38.907Z,43.39
2018-09-28T13:36:42.153Z,43.28
2018-09-28T13:41:45.287Z,39.10
2018-09-28T13:46:48.463Z,38.60
2018-09-28T13:51:52.455Z,40.10
2018-09-28T13:56:55.570Z,40.77
2018-09-28T14:01:58.671Z,40.33
2018-09-28T14:07:01.862Z,41.03
2018-09-28T14:12:04.928Z,41.64
2018-09-28T14:17:08.106Z,42.68
2018-09-28T14:22:11.564Z,42.66
2018-09-28T14:27:14.687Z,42.90
2018-09-28T14:32:17.798Z,43.70
2018-09-28T14:37:20.924Z,44.95
2018-09-28T14:42:24.088Z,46.55
2018-09-28T14:47:27.233Z,45.25
2018-09-28T14:52:30.577Z,45.08
2018-09-28T14:57:33.699Z,45.27
2018-09-28T15:02:36.939Z,44.34
2018-09-28T15:07:40.198Z,44.06
2018-09-28T15:12:43.221Z,43.63
2018-09-28T15:17:46.392Z,43.03
2018-09-28T15:22:49.499Z,43.24
2018-09-28T15:27:52.583Z,43.40
2018-09-28T15:32:55.697Z,43.89
2018-09-28T15:37:58.815Z,44.57
2018-09-28T15:43:01.899Z,45.41
2018-09-28T15:48:05.093Z,45.51
2018-09-28T15:53:08.187Z,46.13
2018-09-28T15:58:11.364Z,45.94
2018-09-28T16:03:14.423Z,44.76
2018-09-28T16:08:17.504Z,44.91
2018-09-28T16:13:20.584Z,45.44
2018-09-28T16:18:23.668Z,46.28
2018-09-28T16:23:26.714Z,45.42
2018-09-28T16:28:31.607Z,45.85
2018-09-28T16:33:35.335Z,46.75
2018-09-28T16:38:38.745Z,47.51
2018-09-28T16:43:42.712Z,46.88
2018-09-28T16:48:45.844Z,47.73
2018-09-28T16:53:49.264Z,47.29
2018-09-28T16:58:52.439Z,48.04
2018-09-28T17:03:55.647Z,47.50
2018-09-28T17:08:58.784Z,46.50
2018-09-28T17:14:01.824Z,46.99
2018-09-28T17:19:04.996Z,47.52
2018-09-28T17:24:08.123Z,48.71
2018-09-28T17:29:11.506Z,48.80
2018-09-28T17:34:14.789Z,49.54
2018-09-28T17:39:18.891Z,50.21
2018-09-28T17:44:22.271Z,50.11
2018-09-28T17:49:27.429Z,50.64
2018-09-28T17:54:31.857Z,51.08
2018-09-28T17:59:35.777Z,52.32
2018-09-28T18:04:39.203Z,52.71
2018-09-28T18:09:43.118Z,53.36
2018-09-28T18:14:46.496Z,53.84
2018-09-28T18:19:49.873Z,54.20
2018-09-28T18:24:53.051Z,54.95
2018-09-28T18:29:56.195Z,55.46
2018-09-28T18:34:59.257Z,55.61
2018-09-28T18:40:02.391Z,56.51
2018-09-28T18:45:05.677Z,56.86
2018-09-28T18:50:08.876Z,57.19
2018-09-28T18:55:12.842Z,57.29
2018-09-28T19:00:15.979Z,58.07
2018-09-28T19:05:19.439Z,57.95
2018-09-28T19:10:23.345Z,58.39
2018-09-28T19:15:26.724Z,59.05
2018-09-28T19:20:30.151Z,58.95
2018-09-28T19:25:34.731Z,59.34
2018-09-28T19:30:38.969Z,59.96
2018-09-28T19:35:42.532Z,60.70
2018-09-28T19:40:45.649Z,61.28
2018-09-28T19:45:48.871Z,61.72
2018-09-28T19:50:52.057Z,62.52
2018-09-28T19:55:55.568Z,62.57
2018-09-28T20:00:58.687Z,62.90
2018-09-28T20:06:01.823Z,63.89
2018-09-28T20:11:05.191Z,64.33
2018-09-28T20:16:08.468Z,64.44
2018-09-28T20:21:12.076Z,64.38
2018-09-28T20:26:15.179Z,64.86
2018-09-28T20:31:18.247Z,65.12
2018-09-28T20:36:21.299Z,64.87
2018-09-28T20:41:24.415Z,65.50
2018-09-28T20:46:27.762Z,65.28
2018-09-28T20:51:30.945Z,65.81
2018-09-28T20:56:34.028Z,65.71
2018-09-28T21:01:37.093Z,65.70
2018-09-28T21:06:40.150Z,65.77
2018-09-28T21:11:43.232Z,66.16
2018-09-28T21:16:46.326Z,66.00
2018-09-28T21:21:49.379Z,66.49
2018-09-28T21:26:52.444Z,66.59
2018-09-28T21:31:55.579Z,66.77
2018-09-28T21:36:58.648Z,66.73
2018-09-28T21:42:01.726Z,66.95
2018-09-28T21:47:04.844Z,67.16
2018-09-28T21:52:07.956Z,66.87
2018-09-28T21:57:11.071Z,66.58
2018-09-28T22:02:14.172Z,67.08
2018-09-28T22:07:17.283Z,67.06
2018-09-28T22:12:20.383Z,66.76
2018-09-28T22:17:23.481Z,66.87
2018-09-28T22:22:26.544Z,67.53
2018-09-28T22:27:29.612Z,67.83
2018-09-28T22:32:32.731Z,67.91
2018-09-28T22:37:35.825Z,68.34
2018-09-28T22:42:38.930Z,68.75
2018-09-28T22:47:42.026Z,69.64
2018-09-28T22:52:45.180Z,68.98
2018-09-28T22:57:48.264Z,69.85
2018-09-28T23:02:51.363Z,69.03
2018-09-28T23:07:54.487Z,69.20
2018-09-28T23:12:57.611Z,69.22
2018-09-28T23:18:00.692Z,69.16
2018-09-28T23:23:03.780Z,70.06
2018-09-28T23:28:06.882Z,70.04
2018-09-28T23:33:09.980Z,69.84
2018-09-28T23:38:13.143Z,69.93
2018-09-28T23:43:16.225Z,69.70
2018-09-28T23:48:19.303Z,70.03
2018-09-28T23:53:22.407Z,70.60
2018-09-28T23:58:25.558Z,71.23
